sensor_id;sensor_type;location;lat;lon;timestamp;temperature;humidity
802;DHT22;383;48.766;9.270;2023-03-21T00:00:56;10.50;88.80
802;DHT22;383;48.766;9.270;2023-03-21T00:03:24;10.50;88.90
802;DHT22;383;48.766;9.270;2023-03-21T00:05:51;10.40;88.90
802;DHT22;383;48.766;9.270;2023-03-21T00:08:18;10.40;89.00
802;DHT22;383;48.766;9.270;2023-03-21T00:10:45;10.40;89.40
802;DHT22;383;48.766;9.270;2023-03-21T00:13:12;10.40;89.60
802;DHT22;383;48.766;9.270;2023-03-21T00:15:41;10.40;89.70
802;DHT22;383;48.766;9.270;2023-03-21T00:18:16;10.50;89.40
802;DHT22;383;48.766;9.270;2023-03-21T00:20:54;10.50;89.20
802;DHT22;383;48.766;9.270;2023-03-21T00:23:26;10.60;89.00
802;DHT22;383;48.766;9.270;2023-03-21T00:25:53;10.60;88.50
802;DHT22;383;48.766;9.270;2023-03-21T00:28:20;10.70;88.10
802;DHT22;383;48.766;9.270;2023-03-21T00:30:47;10.60;88.60
802;DHT22;383;48.766;9.270;2023-03-21T00:33:13;10.50;89.20
802;DHT22;383;48.766;9.270;2023-03-21T00:35:42;10.50;89.40
802;DHT22;383;48.766;9.270;2023-03-21T00:38:09;10.60;88.60
802;DHT22;383;48.766;9.270;2023-03-21T00:40:36;10.60;88.60
802;DHT22;383;48.766;9.270;2023-03-21T00:43:03;10.60;88.90
802;DHT22;383;48.766;9.270;2023-03-21T00:45:29;10.60;88.60
802;DHT22;383;48.766;9.270;2023-03-21T00:47:57;10.60;88.90
802;DHT22;383;48.766;9.270;2023-03-21T00:50:24;10.60;88.80
802;DHT22;383;48.766;9.270;2023-03-21T00:52:52;10.60;88.80
802;DHT22;383;48.766;9.270;2023-03-21T00:55:19;10.60;88.60
802;DHT22;383;48.766;9.270;2023-03-21T00:57:45;10.60;88.50
802;DHT22;383;48.766;9.270;2023-03-21T01:00:14;10.50;88.60
802;DHT22;383;48.766;9.270;2023-03-21T01:02:42;10.50;88.60
802;DHT22;383;48.766;9.270;2023-03-21T01:05:21;10.50;88.40
802;DHT22;383;48.766;9.270;2023-03-21T01:08:09;10.50;88.20
802;DHT22;383;48.766;9.270;2023-03-21T01:10:38;10.50;88.50
802;DHT22;383;48.766;9.270;2023-03-21T01:13:06;10.50;88.90
802;DHT22;383;48.766;9.270;2023-03-21T01:15:33;10.50;88.50
802;DHT22;383;48.766;9.270;2023-03-21T01:18:00;10.50;88.60
802;DHT22;383;48.766;9.270;2023-03-21T01:20:26;10.60;88.80
802;DHT22;383;48.766;9.270;2023-03-21T01:22:54;10.60;88.80
802;DHT22;383;48.766;9.270;2023-03-21T01:25:22;10.60;88.80
802;DHT22;383;48.766;9.270;2023-03-21T01:27:49;10.70;88.20
802;DHT22;383;48.766;9.270;2023-03-21T01:30:16;10.70;88.10
802;DHT22;383;48.766;9.270;2023-03-21T01:32:43;10.80;88.10
802;DHT22;383;48.766;9.270;2023-03-21T01:35:09;10.80;88.10
802;DHT22;383;48.766;9.270;2023-03-21T01:37:36;10.70;88.20
802;DHT22;383;48.766;9.270;2023-03-21T01:40:04;10.70;88.20
802;DHT22;383;48.766;9.270;2023-03-21T01:42:32;10.80;88.10
802;DHT22;383;48.766;9.270;2023-03-21T01:45:02;10.80;88.20
802;DHT22;383;48.766;9.270;2023-03-21T01:47:29;10.80;88.60
802;DHT22;383;48.766;9.270;2023-03-21T01:49:59;10.80;88.80
802;DHT22;383;48.766;9.270;2023-03-21T01:52:29;10.80;89.00
802;DHT22;383;48.766;9.270;2023-03-21T01:54:57;10.70;89.30
802;DHT22;383;48.766;9.270;2023-03-21T01:57:29;10.80;88.90
802;DHT22;383;48.766;9.270;2023-03-21T02:00:02;10.80;88.20
802;DHT22;383;48.766;9.270;2023-03-21T02:02:37;10.80;88.20
802;DHT22;383;48.766;9.270;2023-03-21T02:05:15;10.80;88.40
802;DHT22;383;48.766;9.270;2023-03-21T02:07:42;10.80;88.60
802;DHT22;383;48.766;9.270;2023-03-21T02:10:11;10.80;89.00
802;DHT22;383;48.766;9.270;2023-03-21T02:12:39;10.80;89.20
802;DHT22;383;48.766;9.270;2023-03-21T02:15:09;10.80;89.20
802;DHT22;383;48.766;9.270;2023-03-21T02:17:39;10.90;88.60
802;DHT22;383;48.766;9.270;2023-03-21T02:23:24;10.90;87.70
802;DHT22;383;48.766;9.270;2023-03-21T02:26:24;10.80;88.10
802;DHT22;383;48.766;9.270;2023-03-21T02:28:56;10.80;88.20
802;DHT22;383;48.766;9.270;2023-03-21T02:31:39;10.80;88.40
802;DHT22;383;48.766;9.270;2023-03-21T02:34:30;10.80;88.50
802;DHT22;383;48.766;9.270;2023-03-21T02:37:06;10.80;88.40
802;DHT22;383;48.766;9.270;2023-03-21T02:39:46;10.60;89.00
802;DHT22;383;48.766;9.270;2023-03-21T02:42:20;10.60;89.30
802;DHT22;383;48.766;9.270;2023-03-21T02:44:50;10.70;88.90
802;DHT22;383;48.766;9.270;2023-03-21T02:47:25;10.60;89.00
802;DHT22;383;48.766;9.270;2023-03-21T02:49:57;10.60;89.20
802;DHT22;383;48.766;9.270;2023-03-21T02:52:32;10.60;89.40
802;DHT22;383;48.766;9.270;2023-03-21T02:55:00;10.70;89.00
802;DHT22;383;48.766;9.270;2023-03-21T02:57:29;10.60;88.60
802;DHT22;383;48.766;9.270;2023-03-21T02:59:57;10.60;88.10
802;DHT22;383;48.766;9.270;2023-03-21T03:02:26;10.60;88.50
802;DHT22;383;48.766;9.270;2023-03-21T03:04:53;10.60;88.50
802;DHT22;383;48.766;9.270;2023-03-21T03:07:32;10.50;88.60
802;DHT22;383;48.766;9.270;2023-03-21T03:10:14;10.50;88.50
802;DHT22;383;48.766;9.270;2023-03-21T03:12:49;10.60;88.10
802;DHT22;383;48.766;9.270;2023-03-21T03:15:26;10.50;88.80
802;DHT22;383;48.766;9.270;2023-03-21T03:18:00;10.40;89.00
802;DHT22;383;48.766;9.270;2023-03-21T03:20:38;10.40;89.30
802;DHT22;383;48.766;9.270;2023-03-21T03:23:17;10.50;89.00
802;DHT22;383;48.766;9.270;2023-03-21T03:25:50;10.50;89.30
802;DHT22;383;48.766;9.270;2023-03-21T03:28:22;10.50;89.20
802;DHT22;383;48.766;9.270;2023-03-21T03:30:51;10.60;88.90
802;DHT22;383;48.766;9.270;2023-03-21T03:33:19;10.40;89.30
802;DHT22;383;48.766;9.270;2023-03-21T03:35:48;10.40;89.80
802;DHT22;383;48.766;9.270;2023-03-21T03:38:19;10.40;89.80
802;DHT22;383;48.766;9.270;2023-03-21T03:40:49;10.50;89.60
802;DHT22;383;48.766;9.270;2023-03-21T03:43:19;10.50;89.60
802;DHT22;383;48.766;9.270;2023-03-21T03:45:53;10.50;89.60
802;DHT22;383;48.766;9.270;2023-03-21T03:48:24;10.50;89.70
802;DHT22;383;48.766;9.270;2023-03-21T03:50:53;10.40;89.90
802;DHT22;383;48.766;9.270;2023-03-21T03:53:27;10.40;89.80
802;DHT22;383;48.766;9.270;2023-03-21T03:55:56;10.60;89.40
802;DHT22;383;48.766;9.270;2023-03-21T03:58:24;10.50;89.40
802;DHT22;383;48.766;9.270;2023-03-21T04:00:52;10.50;89.60
802;DHT22;383;48.766;9.270;2023-03-21T04:03:19;10.50;89.60
802;DHT22;383;48.766;9.270;2023-03-21T04:05:46;10.50;89.40
802;DHT22;383;48.766;9.270;2023-03-21T04:08:14;10.50;89.40
802;DHT22;383;48.766;9.270;2023-03-21T04:10:43;10.50;89.60
802;DHT22;383;48.766;9.270;2023-03-21T04:13:10;10.50;89.40
802;DHT22;383;48.766;9.270;2023-03-21T04:15:37;10.40;89.40
802;DHT22;383;48.766;9.270;2023-03-21T04:18:04;10.40;89.00
802;DHT22;383;48.766;9.270;2023-03-21T04:20:31;10.40;89.40
802;DHT22;383;48.766;9.270;2023-03-21T04:22:57;10.40;89.60
802;DHT22;383;48.766;9.270;2023-03-21T04:25:24;10.30;89.80
802;DHT22;383;48.766;9.270;2023-03-21T04:27:54;10.30;89.80
802;DHT22;383;48.766;9.270;2023-03-21T04:30:21;10.30;89.40
802;DHT22;383;48.766;9.270;2023-03-21T04:32:49;10.30;89.20
802;DHT22;383;48.766;9.270;2023-03-21T04:35:22;10.30;89.60
802;DHT22;383;48.766;9.270;2023-03-21T04:37:49;10.20;89.90
802;DHT22;383;48.766;9.270;2023-03-21T04:40:16;10.20;89.80
802;DHT22;383;48.766;9.270;2023-03-21T04:42:43;10.20;90.20
802;DHT22;383;48.766;9.270;2023-03-21T04:45:12;10.20;90.30
802;DHT22;383;48.766;9.270;2023-03-21T04:47:40;10.20;90.00
802;DHT22;383;48.766;9.270;2023-03-21T04:50:08;10.20;89.90
802;DHT22;383;48.766;9.270;2023-03-21T04:52:35;10.10;90.10
802;DHT22;383;48.766;9.270;2023-03-21T04:55:01;10.00;90.60
802;DHT22;383;48.766;9.270;2023-03-21T04:57:28;9.90;90.80
802;DHT22;383;48.766;9.270;2023-03-21T04:59:55;9.80;91.00
802;DHT22;383;48.766;9.270;2023-03-21T05:02:23;9.80;91.10
802;DHT22;383;48.766;9.270;2023-03-21T05:04:50;9.80;90.70
802;DHT22;383;48.766;9.270;2023-03-21T05:07:16;9.80;90.70
802;DHT22;383;48.766;9.270;2023-03-21T05:09:43;9.80;90.50
802;DHT22;383;48.766;9.270;2023-03-21T05:12:10;9.80;90.70
802;DHT22;383;48.766;9.270;2023-03-21T05:14:36;9.70;91.10
802;DHT22;383;48.766;9.270;2023-03-21T05:17:03;9.80;91.00
802;DHT22;383;48.766;9.270;2023-03-21T05:19:31;9.80;90.90
802;DHT22;383;48.766;9.270;2023-03-21T05:22:01;9.80;90.90
802;DHT22;383;48.766;9.270;2023-03-21T05:24:29;9.70;91.30
802;DHT22;383;48.766;9.270;2023-03-21T05:26:57;9.70;91.50
802;DHT22;383;48.766;9.270;2023-03-21T05:29:29;9.70;91.20
802;DHT22;383;48.766;9.270;2023-03-21T05:31:57;9.70;91.40
802;DHT22;383;48.766;9.270;2023-03-21T05:34:24;9.60;91.90
802;DHT22;383;48.766;9.270;2023-03-21T05:36:53;9.60;91.90
802;DHT22;383;48.766;9.270;2023-03-21T05:39:20;9.70;92.20
802;DHT22;383;48.766;9.270;2023-03-21T05:41:46;9.70;91.90
802;DHT22;383;48.766;9.270;2023-03-21T05:44:13;9.80;91.40
802;DHT22;383;48.766;9.270;2023-03-21T05:46:40;9.80;91.40
802;DHT22;383;48.766;9.270;2023-03-21T05:49:08;9.80;91.10
802;DHT22;383;48.766;9.270;2023-03-21T05:51:35;9.80;91.30
802;DHT22;383;48.766;9.270;2023-03-21T05:54:03;9.90;90.80
802;DHT22;383;48.766;9.270;2023-03-21T05:56:30;10.00;90.70
802;DHT22;383;48.766;9.270;2023-03-21T05:58:57;10.00;90.40
802;DHT22;383;48.766;9.270;2023-03-21T06:01:24;10.00;90.50
802;DHT22;383;48.766;9.270;2023-03-21T06:03:50;10.00;90.90
802;DHT22;383;48.766;9.270;2023-03-21T06:06:17;10.00;90.90
802;DHT22;383;48.766;9.270;2023-03-21T06:08:44;10.00;91.10
802;DHT22;383;48.766;9.270;2023-03-21T06:11:19;10.10;91.40
802;DHT22;383;48.766;9.270;2023-03-21T06:13:47;10.10;91.10
802;DHT22;383;48.766;9.270;2023-03-21T06:16:14;10.10;91.40
802;DHT22;383;48.766;9.270;2023-03-21T06:18:41;10.20;90.70
802;DHT22;383;48.766;9.270;2023-03-21T06:21:07;10.30;90.70
802;DHT22;383;48.766;9.270;2023-03-21T06:23:34;10.30;89.70
802;DHT22;383;48.766;9.270;2023-03-21T06:26:01;10.40;89.60
802;DHT22;383;48.766;9.270;2023-03-21T06:28:30;10.50;89.40
802;DHT22;383;48.766;9.270;2023-03-21T06:30:56;10.50;89.40
802;DHT22;383;48.766;9.270;2023-03-21T06:33:23;10.70;88.90
802;DHT22;383;48.766;9.270;2023-03-21T06:35:51;10.80;88.60
802;DHT22;383;48.766;9.270;2023-03-21T06:38:18;10.90;87.40
802;DHT22;383;48.766;9.270;2023-03-21T06:40:45;10.90;87.10
802;DHT22;383;48.766;9.270;2023-03-21T06:43:12;10.90;86.90
802;DHT22;383;48.766;9.270;2023-03-21T06:45:40;10.90;87.20
802;DHT22;383;48.766;9.270;2023-03-21T06:48:07;10.90;86.90
802;DHT22;383;48.766;9.270;2023-03-21T06:50:34;10.90;86.70
802;DHT22;383;48.766;9.270;2023-03-21T06:53:01;10.80;87.40
802;DHT22;383;48.766;9.270;2023-03-21T06:55:28;10.90;87.30
802;DHT22;383;48.766;9.270;2023-03-21T06:57:55;10.90;87.20
802;DHT22;383;48.766;9.270;2023-03-21T07:00:23;10.90;86.50
802;DHT22;383;48.766;9.270;2023-03-21T07:02:51;11.00;86.80
802;DHT22;383;48.766;9.270;2023-03-21T07:05:18;11.00;86.90
802;DHT22;383;48.766;9.270;2023-03-21T07:07:45;10.90;87.10
802;DHT22;383;48.766;9.270;2023-03-21T07:10:13;10.80;87.40
802;DHT22;383;48.766;9.270;2023-03-21T07:12:40;10.80;87.70
802;DHT22;383;48.766;9.270;2023-03-21T07:15:09;10.80;87.30
802;DHT22;383;48.766;9.270;2023-03-21T07:17:36;10.80;86.80
802;DHT22;383;48.766;9.270;2023-03-21T07:20:05;10.90;86.50
802;DHT22;383;48.766;9.270;2023-03-21T07:22:33;11.00;87.10
802;DHT22;383;48.766;9.270;2023-03-21T07:25:00;11.00;87.20
802;DHT22;383;48.766;9.270;2023-03-21T07:27:27;11.00;87.20
802;DHT22;383;48.766;9.270;2023-03-21T07:29:54;11.00;87.30
802;DHT22;383;48.766;9.270;2023-03-21T07:32:20;11.00;87.40
802;DHT22;383;48.766;9.270;2023-03-21T07:34:47;11.10;87.10
802;DHT22;383;48.766;9.270;2023-03-21T07:37:15;11.10;86.70
802;DHT22;383;48.766;9.270;2023-03-21T07:39:42;11.20;86.40
802;DHT22;383;48.766;9.270;2023-03-21T07:42:09;11.20;86.10
802;DHT22;383;48.766;9.270;2023-03-21T07:44:36;11.20;86.10
802;DHT22;383;48.766;9.270;2023-03-21T07:47:03;11.30;85.90
802;DHT22;383;48.766;9.270;2023-03-21T07:49:30;11.40;85.70
802;DHT22;383;48.766;9.270;2023-03-21T07:51:57;11.50;85.90
802;DHT22;383;48.766;9.270;2023-03-21T07:54:25;11.60;85.10
802;DHT22;383;48.766;9.270;2023-03-21T07:56:53;11.70;84.00
802;DHT22;383;48.766;9.270;2023-03-21T07:59:19;11.80;84.30
802;DHT22;383;48.766;9.270;2023-03-21T08:01:46;11.90;84.30
802;DHT22;383;48.766;9.270;2023-03-21T08:04:13;12.00;83.20
802;DHT22;383;48.766;9.270;2023-03-21T08:06:40;12.10;83.00
802;DHT22;383;48.766;9.270;2023-03-21T08:09:07;12.20;81.50
802;DHT22;383;48.766;9.270;2023-03-21T08:11:35;12.30;81.40
802;DHT22;383;48.766;9.270;2023-03-21T08:14:01;12.50;79.70
802;DHT22;383;48.766;9.270;2023-03-21T08:16:28;12.50;79.50
802;DHT22;383;48.766;9.270;2023-03-21T08:18:55;12.50;79.40
802;DHT22;383;48.766;9.270;2023-03-21T08:21:22;12.50;79.10
802;DHT22;383;48.766;9.270;2023-03-21T08:23:48;12.50;78.90
802;DHT22;383;48.766;9.270;2023-03-21T08:26:16;12.60;78.60
802;DHT22;383;48.766;9.270;2023-03-21T08:28:45;12.70;78.10
802;DHT22;383;48.766;9.270;2023-03-21T08:31:12;12.80;77.40
802;DHT22;383;48.766;9.270;2023-03-21T08:33:39;12.90;77.10
802;DHT22;383;48.766;9.270;2023-03-21T08:36:07;12.90;77.10
802;DHT22;383;48.766;9.270;2023-03-21T08:38:34;12.90;76.70
802;DHT22;383;48.766;9.270;2023-03-21T08:41:01;13.00;76.20
802;DHT22;383;48.766;9.270;2023-03-21T08:43:28;13.10;76.50
802;DHT22;383;48.766;9.270;2023-03-21T08:45:57;13.20;75.60
802;DHT22;383;48.766;9.270;2023-03-21T08:48:23;13.30;76.10
802;DHT22;383;48.766;9.270;2023-03-21T08:50:50;13.40;75.70
802;DHT22;383;48.766;9.270;2023-03-21T08:53:17;13.50;74.80
802;DHT22;383;48.766;9.270;2023-03-21T08:55:43;13.70;74.50
802;DHT22;383;48.766;9.270;2023-03-21T08:58:10;13.80;74.50
802;DHT22;383;48.766;9.270;2023-03-21T09:00:37;13.90;73.30
802;DHT22;383;48.766;9.270;2023-03-21T09:03:06;14.00;72.90
802;DHT22;383;48.766;9.270;2023-03-21T09:05:32;14.20;72.60
802;DHT22;383;48.766;9.270;2023-03-21T09:08:00;14.30;70.80
802;DHT22;383;48.766;9.270;2023-03-21T09:10:28;14.50;71.20
802;DHT22;383;48.766;9.270;2023-03-21T09:12:55;14.50;69.90
802;DHT22;383;48.766;9.270;2023-03-21T09:15:23;14.70;69.70
802;DHT22;383;48.766;9.270;2023-03-21T09:17:50;14.80;69.90
802;DHT22;383;48.766;9.270;2023-03-21T09:20:20;15.00;69.90
802;DHT22;383;48.766;9.270;2023-03-21T09:22:55;15.00;67.60
802;DHT22;383;48.766;9.270;2023-03-21T09:25:22;15.10;67.80
802;DHT22;383;48.766;9.270;2023-03-21T09:27:49;15.10;67.50
802;DHT22;383;48.766;9.270;2023-03-21T09:30:19;15.30;66.60
802;DHT22;383;48.766;9.270;2023-03-21T09:32:46;15.40;67.50
802;DHT22;383;48.766;9.270;2023-03-21T09:35:15;15.50;66.30
802;DHT22;383;48.766;9.270;2023-03-21T09:37:44;15.60;66.00
802;DHT22;383;48.766;9.270;2023-03-21T09:40:17;15.70;64.60
802;DHT22;383;48.766;9.270;2023-03-21T09:42:54;15.80;64.20
802;DHT22;383;48.766;9.270;2023-03-21T09:45:29;15.90;62.90
802;DHT22;383;48.766;9.270;2023-03-21T09:47:59;16.00;61.40
802;DHT22;383;48.766;9.270;2023-03-21T09:50:30;15.90;62.10
802;DHT22;383;48.766;9.270;2023-03-21T09:53:00;15.90;63.40
802;DHT22;383;48.766;9.270;2023-03-21T09:55:31;15.90;63.70
802;DHT22;383;48.766;9.270;2023-03-21T09:58:04;16.00;63.50
802;DHT22;383;48.766;9.270;2023-03-21T10:00:35;16.20;61.10
802;DHT22;383;48.766;9.270;2023-03-21T10:03:05;16.30;60.20
802;DHT22;383;48.766;9.270;2023-03-21T10:05:42;16.50;60.20
802;DHT22;383;48.766;9.270;2023-03-21T10:08:15;16.70;59.50
802;DHT22;383;48.766;9.270;2023-03-21T10:10:47;16.80;58.20
802;DHT22;383;48.766;9.270;2023-03-21T10:13:17;17.10;59.30
802;DHT22;383;48.766;9.270;2023-03-21T10:15:45;17.30;58.20
802;DHT22;383;48.766;9.270;2023-03-21T10:18:20;17.50;57.40
802;DHT22;383;48.766;9.270;2023-03-21T10:20:49;17.90;57.40
802;DHT22;383;48.766;9.270;2023-03-21T10:23:20;18.20;56.50
802;DHT22;383;48.766;9.270;2023-03-21T10:25:50;18.50;53.40
802;DHT22;383;48.766;9.270;2023-03-21T10:28:21;18.60;55.40
802;DHT22;383;48.766;9.270;2023-03-21T10:30:50;18.60;55.70
802;DHT22;383;48.766;9.270;2023-03-21T10:33:21;18.60;55.00
802;DHT22;383;48.766;9.270;2023-03-21T10:35:51;18.70;53.90
802;DHT22;383;48.766;9.270;2023-03-21T10:38:23;18.80;53.80
802;DHT22;383;48.766;9.270;2023-03-21T10:40:53;18.80;53.10
802;DHT22;383;48.766;9.270;2023-03-21T10:43:31;18.90;53.30
802;DHT22;383;48.766;9.270;2023-03-21T10:46:06;19.00;53.00
802;DHT22;383;48.766;9.270;2023-03-21T10:48:35;19.10;53.10
802;DHT22;383;48.766;9.270;2023-03-21T10:51:05;19.00;53.40
802;DHT22;383;48.766;9.270;2023-03-21T10:53:38;18.90;53.80
802;DHT22;383;48.766;9.270;2023-03-21T10:56:08;18.90;53.00
802;DHT22;383;48.766;9.270;2023-03-21T10:58:38;18.80;53.90
802;DHT22;383;48.766;9.270;2023-03-21T11:01:10;18.70;52.80
802;DHT22;383;48.766;9.270;2023-03-21T11:03:41;18.70;54.10
802;DHT22;383;48.766;9.270;2023-03-21T11:06:13;18.80;53.10
802;DHT22;383;48.766;9.270;2023-03-21T11:08:45;19.00;53.90
802;DHT22;383;48.766;9.270;2023-03-21T11:11:19;19.20;52.00
802;DHT22;383;48.766;9.270;2023-03-21T11:13:55;19.30;52.60
802;DHT22;383;48.766;9.270;2023-03-21T11:16:24;19.30;54.10
802;DHT22;383;48.766;9.270;2023-03-21T11:18:58;19.40;52.60
802;DHT22;383;48.766;9.270;2023-03-21T11:21:25;19.40;51.90
802;DHT22;383;48.766;9.270;2023-03-21T11:23:55;19.60;51.50
802;DHT22;383;48.766;9.270;2023-03-21T11:26:26;19.60;52.30
802;DHT22;383;48.766;9.270;2023-03-21T11:28:55;19.70;50.70
802;DHT22;383;48.766;9.270;2023-03-21T11:31:36;19.70;50.70
802;DHT22;383;48.766;9.270;2023-03-21T11:34:05;19.80;50.80
802;DHT22;383;48.766;9.270;2023-03-21T11:36:33;19.70;50.50
802;DHT22;383;48.766;9.270;2023-03-21T11:39:23;19.80;49.30
802;DHT22;383;48.766;9.270;2023-03-21T11:41:53;19.90;49.30
802;DHT22;383;48.766;9.270;2023-03-21T11:44:42;20.00;49.00
802;DHT22;383;48.766;9.270;2023-03-21T11:47:10;20.20;48.30
802;DHT22;383;48.766;9.270;2023-03-21T11:49:36;20.10;47.60
802;DHT22;383;48.766;9.270;2023-03-21T11:52:11;19.70;47.90
802;DHT22;383;48.766;9.270;2023-03-21T11:54:54;19.70;46.20
802;DHT22;383;48.766;9.270;2023-03-21T11:57:29;19.70;46.40
802;DHT22;383;48.766;9.270;2023-03-21T12:00:03;19.70;45.80
802;DHT22;383;48.766;9.270;2023-03-21T12:05:35;19.60;46.80
802;DHT22;383;48.766;9.270;2023-03-21T12:08:08;19.70;46.40
802;DHT22;383;48.766;9.270;2023-03-21T12:10:43;19.70;46.90
802;DHT22;383;48.766;9.270;2023-03-21T12:13:28;19.80;45.80
802;DHT22;383;48.766;9.270;2023-03-21T12:16:17;19.70;45.60
802;DHT22;383;48.766;9.270;2023-03-21T12:18:58;19.70;46.40
802;DHT22;383;48.766;9.270;2023-03-21T12:21:32;19.80;46.40
802;DHT22;383;48.766;9.270;2023-03-21T12:24:04;19.80;45.70
802;DHT22;383;48.766;9.270;2023-03-21T12:26:39;19.90;46.90
802;DHT22;383;48.766;9.270;2023-03-21T12:29:20;19.90;46.70
802;DHT22;383;48.766;9.270;2023-03-21T12:31:59;20.00;46.10
802;DHT22;383;48.766;9.270;2023-03-21T12:34:45;20.10;46.80
802;DHT22;383;48.766;9.270;2023-03-21T12:37:22;20.10;45.30
802;DHT22;383;48.766;9.270;2023-03-21T12:39:57;20.10;45.30
802;DHT22;383;48.766;9.270;2023-03-21T12:42:53;20.20;44.60
802;DHT22;383;48.766;9.270;2023-03-21T12:45:26;20.20;46.30
802;DHT22;383;48.766;9.270;2023-03-21T12:47:59;20.20;48.40
802;DHT22;383;48.766;9.270;2023-03-21T12:50:31;20.00;47.80
802;DHT22;383;48.766;9.270;2023-03-21T12:53:11;19.80;49.80
802;DHT22;383;48.766;9.270;2023-03-21T12:55:40;19.90;49.50
802;DHT22;383;48.766;9.270;2023-03-21T12:58:13;19.80;50.40
802;DHT22;383;48.766;9.270;2023-03-21T13:00:47;19.90;49.70
802;DHT22;383;48.766;9.270;2023-03-21T13:03:18;19.80;49.70
802;DHT22;383;48.766;9.270;2023-03-21T13:05:48;19.70;50.20
802;DHT22;383;48.766;9.270;2023-03-21T13:08:22;19.70;49.20
802;DHT22;383;48.766;9.270;2023-03-21T13:10:49;19.60;50.50
802;DHT22;383;48.766;9.270;2023-03-21T13:13:21;19.70;50.70
802;DHT22;383;48.766;9.270;2023-03-21T13:15:59;19.80;49.90
802;DHT22;383;48.766;9.270;2023-03-21T13:18:34;19.80;48.80
802;DHT22;383;48.766;9.270;2023-03-21T13:21:10;19.80;49.70
802;DHT22;383;48.766;9.270;2023-03-21T13:23:39;19.80;49.70
802;DHT22;383;48.766;9.270;2023-03-21T13:26:08;19.70;49.30
802;DHT22;383;48.766;9.270;2023-03-21T13:28:38;19.80;48.90
802;DHT22;383;48.766;9.270;2023-03-21T13:31:16;19.90;49.40
802;DHT22;383;48.766;9.270;2023-03-21T13:33:45;19.90;48.70
802;DHT22;383;48.766;9.270;2023-03-21T13:36:14;19.90;48.60
802;DHT22;383;48.766;9.270;2023-03-21T13:38:41;19.80;48.80
802;DHT22;383;48.766;9.270;2023-03-21T13:41:17;19.90;49.30
802;DHT22;383;48.766;9.270;2023-03-21T13:43:51;19.90;48.80
802;DHT22;383;48.766;9.270;2023-03-21T13:46:35;19.90;48.70
802;DHT22;383;48.766;9.270;2023-03-21T13:49:17;19.80;48.90
802;DHT22;383;48.766;9.270;2023-03-21T13:51:52;19.70;48.40
802;DHT22;383;48.766;9.270;2023-03-21T13:54:26;19.60;48.40
802;DHT22;383;48.766;9.270;2023-03-21T13:56:57;19.40;48.20
802;DHT22;383;48.766;9.270;2023-03-21T13:59:40;19.50;48.70
802;DHT22;383;48.766;9.270;2023-03-21T14:02:22;19.40;48.70
802;DHT22;383;48.766;9.270;2023-03-21T14:04:55;19.30;49.50
802;DHT22;383;48.766;9.270;2023-03-21T14:07:25;19.20;48.90
802;DHT22;383;48.766;9.270;2023-03-21T14:09:54;19.10;50.40
802;DHT22;383;48.766;9.270;2023-03-21T14:12:24;19.10;50.30
802;DHT22;383;48.766;9.270;2023-03-21T14:14:58;19.20;51.00
802;DHT22;383;48.766;9.270;2023-03-21T14:17:26;19.30;50.00
802;DHT22;383;48.766;9.270;2023-03-21T14:19:54;19.40;49.40
802;DHT22;383;48.766;9.270;2023-03-21T14:22:21;19.40;50.00
802;DHT22;383;48.766;9.270;2023-03-21T14:24:54;19.50;48.80
802;DHT22;383;48.766;9.270;2023-03-21T14:27:21;19.50;49.20
802;DHT22;383;48.766;9.270;2023-03-21T14:29:48;19.60;47.90
802;DHT22;383;48.766;9.270;2023-03-21T14:32:22;19.50;48.10
802;DHT22;383;48.766;9.270;2023-03-21T14:34:50;19.50;49.70
802;DHT22;383;48.766;9.270;2023-03-21T14:37:30;19.30;51.00
802;DHT22;383;48.766;9.270;2023-03-21T14:39:59;19.20;50.40
802;DHT22;383;48.766;9.270;2023-03-21T14:42:26;19.10;51.20
802;DHT22;383;48.766;9.270;2023-03-21T14:44:53;19.00;49.70
802;DHT22;383;48.766;9.270;2023-03-21T14:47:29;19.00;51.30
802;DHT22;383;48.766;9.270;2023-03-21T14:49:57;18.90;53.00
802;DHT22;383;48.766;9.270;2023-03-21T14:52:29;18.80;52.80
802;DHT22;383;48.766;9.270;2023-03-21T14:54:57;18.80;54.10
802;DHT22;383;48.766;9.270;2023-03-21T14:57:27;18.70;53.80
802;DHT22;383;48.766;9.270;2023-03-21T14:59:59;18.70;54.40
802;DHT22;383;48.766;9.270;2023-03-21T15:02:34;18.70;53.60
802;DHT22;383;48.766;9.270;2023-03-21T15:05:07;18.70;53.40
802;DHT22;383;48.766;9.270;2023-03-21T15:07:35;18.60;54.70
802;DHT22;383;48.766;9.270;2023-03-21T15:10:04;18.60;54.40
802;DHT22;383;48.766;9.270;2023-03-21T15:12:32;18.60;54.70
802;DHT22;383;48.766;9.270;2023-03-21T15:14:59;18.60;53.60
802;DHT22;383;48.766;9.270;2023-03-21T15:17:28;18.60;54.60
802;DHT22;383;48.766;9.270;2023-03-21T15:19:56;18.40;53.90
802;DHT22;383;48.766;9.270;2023-03-21T15:22:28;18.40;54.10
802;DHT22;383;48.766;9.270;2023-03-21T15:24:58;18.40;54.90
802;DHT22;383;48.766;9.270;2023-03-21T15:27:29;18.40;54.30
802;DHT22;383;48.766;9.270;2023-03-21T15:29:56;18.40;54.70
802;DHT22;383;48.766;9.270;2023-03-21T15:32:25;18.30;53.60
802;DHT22;383;48.766;9.270;2023-03-21T15:34:53;18.30;54.10
802;DHT22;383;48.766;9.270;2023-03-21T15:37:25;18.10;53.90
802;DHT22;383;48.766;9.270;2023-03-21T15:39:52;18.00;54.60
802;DHT22;383;48.766;9.270;2023-03-21T15:42:28;17.80;54.10
802;DHT22;383;48.766;9.270;2023-03-21T15:45:00;17.60;55.00
802;DHT22;383;48.766;9.270;2023-03-21T15:47:50;17.50;55.20
802;DHT22;383;48.766;9.270;2023-03-21T15:50:25;17.50;55.50
802;DHT22;383;48.766;9.270;2023-03-21T15:52:53;17.50;55.20
802;DHT22;383;48.766;9.270;2023-03-21T15:55:23;17.60;55.90
802;DHT22;383;48.766;9.270;2023-03-21T15:57:54;17.60;55.70
802;DHT22;383;48.766;9.270;2023-03-21T16:00:30;17.60;56.60
802;DHT22;383;48.766;9.270;2023-03-21T16:03:03;17.50;56.70
802;DHT22;383;48.766;9.270;2023-03-21T16:05:32;17.40;57.20
802;DHT22;383;48.766;9.270;2023-03-21T16:08:04;17.30;57.50
802;DHT22;383;48.766;9.270;2023-03-21T16:10:36;17.00;57.80
802;DHT22;383;48.766;9.270;2023-03-21T16:13:03;16.80;59.30
802;DHT22;383;48.766;9.270;2023-03-21T16:15:31;16.80;60.00
802;DHT22;383;48.766;9.270;2023-03-21T16:18:00;16.70;60.00
802;DHT22;383;48.766;9.270;2023-03-21T16:20:31;16.60;59.80
802;DHT22;383;48.766;9.270;2023-03-21T16:22:59;16.60;60.20
802;DHT22;383;48.766;9.270;2023-03-21T16:25:29;16.60;59.60
802;DHT22;383;48.766;9.270;2023-03-21T16:27:57;16.50;60.60
802;DHT22;383;48.766;9.270;2023-03-21T16:30:24;16.50;60.10
802;DHT22;383;48.766;9.270;2023-03-21T16:32:52;16.50;59.60
802;DHT22;383;48.766;9.270;2023-03-21T16:35:19;16.50;60.00
802;DHT22;383;48.766;9.270;2023-03-21T16:37:46;16.40;59.60
802;DHT22;383;48.766;9.270;2023-03-21T16:40:31;16.40;60.50
802;DHT22;383;48.766;9.270;2023-03-21T16:42:58;16.20;60.50
802;DHT22;383;48.766;9.270;2023-03-21T16:45:25;16.10;61.00
802;DHT22;383;48.766;9.270;2023-03-21T16:47:53;16.10;61.10
802;DHT22;383;48.766;9.270;2023-03-21T16:50:23;16.00;61.10
802;DHT22;383;48.766;9.270;2023-03-21T16:52:51;15.90;61.70
802;DHT22;383;48.766;9.270;2023-03-21T16:55:18;15.80;62.30
802;DHT22;383;48.766;9.270;2023-03-21T16:57:48;15.80;62.70
802;DHT22;383;48.766;9.270;2023-03-21T17:00:18;15.80;63.00
802;DHT22;383;48.766;9.270;2023-03-21T17:02:47;15.70;63.40